sensor_id;sensor_type;location;lat;lon;timestamp;P1;durP1;ratioP1;P2;durP2;ratioP2
17618;SDS011;8928;51.678;6.074;2023-10-31T00:00:12;11.90;;;5.80;;
17618;SDS011;8928;51.678;6.074;2023-10-31T00:02:59;12.20;;;5.87;;
17618;SDS011;8928;51.678;6.074;2023-10-31T00:05:46;10.73;;;5.87;;
17618;SDS011;8928;51.678;6.074;2023-10-31T00:08:33;12.57;;;5.77;;
17618;SDS011;8928;51.678;6.074;2023-10-31T00:11:20;11.10;;;5.40;;
17618;SDS011;8928;51.678;6.074;2023-10-31T00:14:07;9.50;;;5.07;;
17618;SDS011;8928;51.678;6.074;2023-10-31T00:16:56;10.73;;;5.30;;
17618;SDS011;8928;51.678;6.074;2023-10-31T00:19:43;11.23;;;5.53;;
17618;SDS011;8928;51.678;6.074;2023-10-31T00:22:30;11.80;;;5.37;;
17618;SDS011;8928;51.678;6.074;2023-10-31T00:25:17;10.47;;;4.87;;
17618;SDS011;8928;51.678;6.074;2023-10-31T00:28:05;13.03;;;6.47;;
17618;SDS011;8928;51.678;6.074;2023-10-31T00:30:52;16.17;;;6.43;;
17618;SDS011;8928;51.678;6.074;2023-10-31T00:33:41;14.87;;;6.70;;
17618;SDS011;8928;51.678;6.074;2023-10-31T00:36:28;14.57;;;6.60;;
17618;SDS011;8928;51.678;6.074;2023-10-31T00:39:15;12.97;;;6.20;;
17618;SDS011;8928;51.678;6.074;2023-10-31T00:42:03;15.43;;;5.80;;
17618;SDS011;8928;51.678;6.074;2023-10-31T00:44:50;17.30;;;5.33;;
17618;SDS011;8928;51.678;6.074;2023-10-31T00:47:37;9.33;;;4.80;;
17618;SDS011;8928;51.678;6.074;2023-10-31T00:50:25;14.27;;;5.80;;
17618;SDS011;8928;51.678;6.074;2023-10-31T00:53:12;19.20;;;7.67;;
17618;SDS011;8928;51.678;6.074;2023-10-31T00:56:00;20.00;;;9.30;;
17618;SDS011;8928;51.678;6.074;2023-10-31T00:58:48;22.13;;;10.23;;
17618;SDS011;8928;51.678;6.074;2023-10-31T01:01:35;22.50;;;11.37;;
17618;SDS011;8928;51.678;6.074;2023-10-31T01:04:22;22.50;;;11.20;;
17618;SDS011;8928;51.678;6.074;2023-10-31T01:07:11;21.60;;;10.90;;
17618;SDS011;8928;51.678;6.074;2023-10-31T01:10:02;25.37;;;11.27;;
17618;SDS011;8928;51.678;6.074;2023-10-31T01:12:49;22.83;;;10.87;;
17618;SDS011;8928;51.678;6.074;2023-10-31T01:15:37;26.33;;;12.53;;
17618;SDS011;8928;51.678;6.074;2023-10-31T01:18:24;29.73;;;13.93;;
17618;SDS011;8928;51.678;6.074;2023-10-31T01:21:11;31.73;;;14.47;;
17618;SDS011;8928;51.678;6.074;2023-10-31T01:24:00;34.10;;;16.07;;
17618;SDS011;8928;51.678;6.074;2023-10-31T01:26:47;38.33;;;17.50;;
17618;SDS011;8928;51.678;6.074;2023-10-31T01:29:34;38.10;;;18.37;;
17618;SDS011;8928;51.678;6.074;2023-10-31T01:32:21;43.67;;;19.57;;
17618;SDS011;8928;51.678;6.074;2023-10-31T01:35:08;43.43;;;20.53;;
17618;SDS011;8928;51.678;6.074;2023-10-31T01:37:55;46.07;;;21.10;;
17618;SDS011;8928;51.678;6.074;2023-10-31T01:40:43;46.77;;;21.90;;
17618;SDS011;8928;51.678;6.074;2023-10-31T01:43:31;50.43;;;22.87;;
17618;SDS011;8928;51.678;6.074;2023-10-31T01:46:19;54.27;;;24.40;;
17618;SDS011;8928;51.678;6.074;2023-10-31T01:49:06;51.50;;;24.47;;
17618;SDS011;8928;51.678;6.074;2023-10-31T01:51:53;49.67;;;24.17;;
17618;SDS011;8928;51.678;6.074;2023-10-31T01:54:40;52.30;;;24.07;;
17618;SDS011;8928;51.678;6.074;2023-10-31T01:57:28;47.53;;;21.70;;
17618;SDS011;8928;51.678;6.074;2023-10-31T02:00:16;42.63;;;20.07;;
17618;SDS011;8928;51.678;6.074;2023-10-31T02:03:04;39.50;;;20.27;;
17618;SDS011;8928;51.678;6.074;2023-10-31T02:05:51;40.50;;;18.83;;
17618;SDS011;8928;51.678;6.074;2023-10-31T02:08:38;37.87;;;17.93;;
17618;SDS011;8928;51.678;6.074;2023-10-31T02:11:26;33.60;;;16.77;;
17618;SDS011;8928;51.678;6.074;2023-10-31T02:14:14;33.10;;;16.13;;
17618;SDS011;8928;51.678;6.074;2023-10-31T02:17:01;37.07;;;15.73;;
17618;SDS011;8928;51.678;6.074;2023-10-31T02:19:49;39.77;;;15.60;;
17618;SDS011;8928;51.678;6.074;2023-10-31T02:22:37;37.90;;;16.73;;
17618;SDS011;8928;51.678;6.074;2023-10-31T02:25:24;44.67;;;17.37;;
17618;SDS011;8928;51.678;6.074;2023-10-31T02:28:11;42.30;;;16.77;;
17618;SDS011;8928;51.678;6.074;2023-10-31T02:30:58;44.70;;;16.87;;
17618;SDS011;8928;51.678;6.074;2023-10-31T02:33:45;44.90;;;17.20;;
17618;SDS011;8928;51.678;6.074;2023-10-31T02:36:32;47.00;;;17.70;;
17618;SDS011;8928;51.678;6.074;2023-10-31T02:39:21;47.87;;;17.83;;
17618;SDS011;8928;51.678;6.074;2023-10-31T02:42:08;47.63;;;17.73;;
17618;SDS011;8928;51.678;6.074;2023-10-31T02:44:55;50.03;;;18.77;;
17618;SDS011;8928;51.678;6.074;2023-10-31T02:47:42;49.20;;;18.53;;
17618;SDS011;8928;51.678;6.074;2023-10-31T02:50:29;47.37;;;19.23;;
17618;SDS011;8928;51.678;6.074;2023-10-31T02:53:17;54.40;;;19.33;;
17618;SDS011;8928;51.678;6.074;2023-10-31T02:56:06;60.70;;;20.43;;
17618;SDS011;8928;51.678;6.074;2023-10-31T02:58:53;58.47;;;20.33;;
17618;SDS011;8928;51.678;6.074;2023-10-31T03:01:40;54.87;;;20.37;;
17618;SDS011;8928;51.678;6.074;2023-10-31T03:04:27;57.07;;;20.50;;
17618;SDS011;8928;51.678;6.074;2023-10-31T03:07:14;54.13;;;22.13;;
17618;SDS011;8928;51.678;6.074;2023-10-31T03:10:02;59.67;;;22.20;;
17618;SDS011;8928;51.678;6.074;2023-10-31T03:12:50;67.17;;;23.47;;
17618;SDS011;8928;51.678;6.074;2023-10-31T03:15:37;60.53;;;21.90;;
17618;SDS011;8928;51.678;6.074;2023-10-31T03:18:24;71.10;;;24.40;;
17618;SDS011;8928;51.678;6.074;2023-10-31T03:21:11;64.40;;;23.80;;
17618;SDS011;8928;51.678;6.074;2023-10-31T03:24:00;64.60;;;24.07;;
17618;SDS011;8928;51.678;6.074;2023-10-31T03:26:47;68.37;;;25.23;;
17618;SDS011;8928;51.678;6.074;2023-10-31T03:29:35;76.67;;;25.47;;
17618;SDS011;8928;51.678;6.074;2023-10-31T03:32:22;69.13;;;25.43;;
17618;SDS011;8928;51.678;6.074;2023-10-31T03:35:09;72.70;;;26.67;;
17618;SDS011;8928;51.678;6.074;2023-10-31T03:37:56;72.00;;;25.90;;
17618;SDS011;8928;51.678;6.074;2023-10-31T03:40:43;69.70;;;25.60;;
17618;SDS011;8928;51.678;6.074;2023-10-31T03:43:30;73.90;;;27.97;;
17618;SDS011;8928;51.678;6.074;2023-10-31T03:46:19;72.53;;;27.60;;
17618;SDS011;8928;51.678;6.074;2023-10-31T03:49:06;79.17;;;28.27;;
17618;SDS011;8928;51.678;6.074;2023-10-31T03:51:53;74.10;;;27.43;;
17618;SDS011;8928;51.678;6.074;2023-10-31T03:54:40;80.53;;;28.37;;
17618;SDS011;8928;51.678;6.074;2023-10-31T03:57:27;80.47;;;29.17;;
17618;SDS011;8928;51.678;6.074;2023-10-31T04:00:14;75.07;;;28.43;;
17618;SDS011;8928;51.678;6.074;2023-10-31T04:03:03;79.23;;;27.77;;
17618;SDS011;8928;51.678;6.074;2023-10-31T04:05:50;70.53;;;27.57;;
17618;SDS011;8928;51.678;6.074;2023-10-31T04:08:37;74.87;;;28.37;;
17618;SDS011;8928;51.678;6.074;2023-10-31T04:11:24;72.83;;;27.73;;
17618;SDS011;8928;51.678;6.074;2023-10-31T04:14:11;79.33;;;29.53;;
17618;SDS011;8928;51.678;6.074;2023-10-31T04:16:58;89.97;;;29.23;;
17618;SDS011;8928;51.678;6.074;2023-10-31T04:19:47;86.33;;;29.20;;
17618;SDS011;8928;51.678;6.074;2023-10-31T04:22:34;85.10;;;29.70;;
17618;SDS011;8928;51.678;6.074;2023-10-31T04:25:21;78.43;;;28.67;;
17618;SDS011;8928;51.678;6.074;2023-10-31T04:28:08;79.07;;;29.00;;
17618;SDS011;8928;51.678;6.074;2023-10-31T04:30:55;76.30;;;29.03;;
17618;SDS011;8928;51.678;6.074;2023-10-31T04:33:42;77.40;;;28.10;;
17618;SDS011;8928;51.678;6.074;2023-10-31T04:36:30;78.30;;;28.77;;
17618;SDS011;8928;51.678;6.074;2023-10-31T04:39:17;74.20;;;28.07;;
17618;SDS011;8928;51.678;6.074;2023-10-31T04:42:04;74.53;;;27.40;;
17618;SDS011;8928;51.678;6.074;2023-10-31T04:44:51;74.03;;;28.03;;
17618;SDS011;8928;51.678;6.074;2023-10-31T04:47:38;77.17;;;27.77;;
17618;SDS011;8928;51.678;6.074;2023-10-31T04:50:26;76.80;;;28.27;;
17618;SDS011;8928;51.678;6.074;2023-10-31T04:53:14;77.90;;;27.97;;
17618;SDS011;8928;51.678;6.074;2023-10-31T04:56:01;72.97;;;26.90;;
17618;SDS011;8928;51.678;6.074;2023-10-31T04:58:49;80.60;;;28.23;;
17618;SDS011;8928;51.678;6.074;2023-10-31T05:01:36;79.43;;;28.97;;
17618;SDS011;8928;51.678;6.074;2023-10-31T05:04:23;83.80;;;30.00;;
17618;SDS011;8928;51.678;6.074;2023-10-31T05:07:10;81.67;;;29.20;;
17618;SDS011;8928;51.678;6.074;2023-10-31T05:09:59;85.80;;;30.47;;
17618;SDS011;8928;51.678;6.074;2023-10-31T05:12:46;83.27;;;30.17;;
17618;SDS011;8928;51.678;6.074;2023-10-31T05:15:33;85.43;;;32.53;;
17618;SDS011;8928;51.678;6.074;2023-10-31T05:18:20;83.60;;;31.73;;
17618;SDS011;8928;51.678;6.074;2023-10-31T05:21:09;88.30;;;32.47;;
17618;SDS011;8928;51.678;6.074;2023-10-31T05:23:56;82.70;;;31.20;;
17618;SDS011;8928;51.678;6.074;2023-10-31T05:26:44;86.93;;;32.17;;
17618;SDS011;8928;51.678;6.074;2023-10-31T05:29:32;92.13;;;32.70;;
17618;SDS011;8928;51.678;6.074;2023-10-31T05:32:19;87.07;;;32.83;;
17618;SDS011;8928;51.678;6.074;2023-10-31T05:35:06;102.00;;;34.10;;
17618;SDS011;8928;51.678;6.074;2023-10-31T05:37:54;93.20;;;32.93;;
17618;SDS011;8928;51.678;6.074;2023-10-31T05:40:41;100.57;;;34.80;;
17618;SDS011;8928;51.678;6.074;2023-10-31T05:43:29;93.07;;;33.43;;
17618;SDS011;8928;51.678;6.074;2023-10-31T05:46:16;98.73;;;33.67;;
17618;SDS011;8928;51.678;6.074;2023-10-31T05:49:03;100.27;;;35.50;;
17618;SDS011;8928;51.678;6.074;2023-10-31T05:51:52;95.03;;;34.17;;
17618;SDS011;8928;51.678;6.074;2023-10-31T05:54:40;95.77;;;33.90;;
17618;SDS011;8928;51.678;6.074;2023-10-31T05:57:27;102.50;;;36.07;;
17618;SDS011;8928;51.678;6.074;2023-10-31T06:00:15;97.57;;;33.87;;
17618;SDS011;8928;51.678;6.074;2023-10-31T06:03:03;102.30;;;33.47;;
17618;SDS011;8928;51.678;6.074;2023-10-31T06:05:50;97.87;;;33.27;;
17618;SDS011;8928;51.678;6.074;2023-10-31T06:08:37;86.90;;;32.37;;
17618;SDS011;8928;51.678;6.074;2023-10-31T06:11:25;83.97;;;31.43;;
17618;SDS011;8928;51.678;6.074;2023-10-31T06:14:12;82.93;;;30.97;;
17618;SDS011;8928;51.678;6.074;2023-10-31T06:17:00;83.17;;;30.17;;
17618;SDS011;8928;51.678;6.074;2023-10-31T06:19:47;73.90;;;28.27;;
17618;SDS011;8928;51.678;6.074;2023-10-31T06:22:34;76.57;;;27.10;;
17618;SDS011;8928;51.678;6.074;2023-10-31T06:25:21;69.00;;;26.20;;
17618;SDS011;8928;51.678;6.074;2023-10-31T06:28:08;71.13;;;26.43;;
17618;SDS011;8928;51.678;6.074;2023-10-31T06:30:55;67.67;;;26.27;;
17618;SDS011;8928;51.678;6.074;2023-10-31T06:33:44;69.17;;;25.40;;
17618;SDS011;8928;51.678;6.074;2023-10-31T06:36:31;65.97;;;25.37;;
17618;SDS011;8928;51.678;6.074;2023-10-31T06:39:18;59.50;;;23.87;;
17618;SDS011;8928;51.678;6.074;2023-10-31T06:42:05;59.57;;;24.27;;
17618;SDS011;8928;51.678;6.074;2023-10-31T06:44:52;59.20;;;23.47;;
17618;SDS011;8928;51.678;6.074;2023-10-31T06:47:39;55.77;;;23.60;;
17618;SDS011;8928;51.678;6.074;2023-10-31T06:50:28;56.67;;;22.63;;
17618;SDS011;8928;51.678;6.074;2023-10-31T06:53:17;56.73;;;22.23;;
17618;SDS011;8928;51.678;6.074;2023-10-31T06:56:04;55.17;;;22.93;;
17618;SDS011;8928;51.678;6.074;2023-10-31T06:58:52;50.63;;;21.60;;
17618;SDS011;8928;51.678;6.074;2023-10-31T07:01:39;51.97;;;22.00;;
17618;SDS011;8928;51.678;6.074;2023-10-31T07:04:26;52.00;;;22.33;;
17618;SDS011;8928;51.678;6.074;2023-10-31T07:07:14;51.77;;;22.77;;
17618;SDS011;8928;51.678;6.074;2023-10-31T07:10:01;52.73;;;23.37;;
17618;SDS011;8928;51.678;6.074;2023-10-31T07:12:49;58.07;;;24.93;;
17618;SDS011;8928;51.678;6.074;2023-10-31T07:15:36;55.77;;;24.77;;
17618;SDS011;8928;51.678;6.074;2023-10-31T07:18:24;59.57;;;24.83;;
17618;SDS011;8928;51.678;6.074;2023-10-31T07:21:11;57.83;;;24.87;;
17618;SDS011;8928;51.678;6.074;2023-10-31T07:23:59;55.73;;;24.73;;
17618;SDS011;8928;51.678;6.074;2023-10-31T07:26:46;57.60;;;24.67;;
17618;SDS011;8928;51.678;6.074;2023-10-31T07:29:33;54.17;;;24.20;;
17618;SDS011;8928;51.678;6.074;2023-10-31T07:32:21;51.17;;;22.57;;
17618;SDS011;8928;51.678;6.074;2023-10-31T07:35:08;49.90;;;22.83;;
17618;SDS011;8928;51.678;6.074;2023-10-31T07:37:55;48.73;;;22.10;;
17618;SDS011;8928;51.678;6.074;2023-10-31T07:40:43;47.67;;;22.00;;
17618;SDS011;8928;51.678;6.074;2023-10-31T07:43:30;49.10;;;22.17;;
17618;SDS011;8928;51.678;6.074;2023-10-31T07:46:17;52.20;;;22.57;;
17618;SDS011;8928;51.678;6.074;2023-10-31T07:49:04;49.03;;;22.77;;
17618;SDS011;8928;51.678;6.074;2023-10-31T07:51:52;53.33;;;23.60;;
17618;SDS011;8928;51.678;6.074;2023-10-31T07:54:39;48.17;;;22.83;;
17618;SDS011;8928;51.678;6.074;2023-10-31T07:57:28;53.37;;;23.80;;
17618;SDS011;8928;51.678;6.074;2023-10-31T08:00:15;52.60;;;24.10;;
17618;SDS011;8928;51.678;6.074;2023-10-31T08:03:02;51.50;;;24.53;;
17618;SDS011;8928;51.678;6.074;2023-10-31T08:05:49;50.23;;;24.60;;
17618;SDS011;8928;51.678;6.074;2023-10-31T08:08:36;53.87;;;24.90;;
17618;SDS011;8928;51.678;6.074;2023-10-31T08:11:23;52.73;;;24.77;;
17618;SDS011;8928;51.678;6.074;2023-10-31T08:14:12;52.03;;;24.93;;
17618;SDS011;8928;51.678;6.074;2023-10-31T08:17:00;53.23;;;24.60;;
17618;SDS011;8928;51.678;6.074;2023-10-31T08:19:48;51.40;;;24.37;;
17618;SDS011;8928;51.678;6.074;2023-10-31T08:22:35;53.73;;;25.23;;
17618;SDS011;8928;51.678;6.074;2023-10-31T08:25:22;53.13;;;24.27;;
17618;SDS011;8928;51.678;6.074;2023-10-31T08:28:09;49.37;;;23.37;;
17618;SDS011;8928;51.678;6.074;2023-10-31T08:30:58;45.57;;;22.93;;
17618;SDS011;8928;51.678;6.074;2023-10-31T08:33:45;45.10;;;22.33;;
17618;SDS011;8928;51.678;6.074;2023-10-31T08:36:32;48.57;;;21.77;;
17618;SDS011;8928;51.678;6.074;2023-10-31T08:39:19;46.07;;;21.53;;
17618;SDS011;8928;51.678;6.074;2023-10-31T08:42:06;42.43;;;21.07;;
17618;SDS011;8928;51.678;6.074;2023-10-31T08:44:54;40.53;;;20.47;;
17618;SDS011;8928;51.678;6.074;2023-10-31T08:47:43;38.90;;;20.23;;
17618;SDS011;8928;51.678;6.074;2023-10-31T08:50:30;42.30;;;21.17;;
17618;SDS011;8928;51.678;6.074;2023-10-31T08:53:17;37.27;;;19.13;;
17618;SDS011;8928;51.678;6.074;2023-10-31T08:56:04;44.47;;;20.83;;
17618;SDS011;8928;51.678;6.074;2023-10-31T08:58:52;35.97;;;19.30;;
17618;SDS011;8928;51.678;6.074;2023-10-31T09:01:39;37.07;;;19.17;;
17618;SDS011;8928;51.678;6.074;2023-10-31T09:04:28;31.90;;;18.30;;
17618;SDS011;8928;51.678;6.074;2023-10-31T09:07:15;35.73;;;19.40;;
17618;SDS011;8928;51.678;6.074;2023-10-31T09:10:02;37.57;;;19.20;;
17618;SDS011;8928;51.678;6.074;2023-10-31T09:12:50;34.07;;;19.07;;
17618;SDS011;8928;51.678;6.074;2023-10-31T09:15:37;34.87;;;19.73;;
17618;SDS011;8928;51.678;6.074;2023-10-31T09:18:25;30.97;;;18.87;;
17618;SDS011;8928;51.678;6.074;2023-10-31T09:21:13;31.03;;;19.03;;
17618;SDS011;8928;51.678;6.074;2023-10-31T09:24:00;36.07;;;20.13;;
17618;SDS011;8928;51.678;6.074;2023-10-31T09:26:48;33.70;;;18.93;;
17618;SDS011;8928;51.678;6.074;2023-10-31T09:29:35;38.60;;;19.77;;
17618;SDS011;8928;51.678;6.074;2023-10-31T09:32:22;34.53;;;19.17;;
17618;SDS011;8928;51.678;6.074;2023-10-31T09:35:09;35.37;;;19.27;;
17618;SDS011;8928;51.678;6.074;2023-10-31T09:37:57;34.97;;;19.33;;
17618;SDS011;8928;51.678;6.074;2023-10-31T09:40:45;35.57;;;18.80;;
17618;SDS011;8928;51.678;6.074;2023-10-31T09:43:32;28.97;;;17.93;;
17618;SDS011;8928;51.678;6.074;2023-10-31T09:46:19;29.17;;;17.37;;
17618;SDS011;8928;51.678;6.074;2023-10-31T09:49:07;35.07;;;18.53;;
17618;SDS011;8928;51.678;6.074;2023-10-31T09:51:56;30.17;;;17.93;;
17618;SDS011;8928;51.678;6.074;2023-10-31T09:54:45;33.57;;;18.20;;
17618;SDS011;8928;51.678;6.074;2023-10-31T09:57:35;33.67;;;18.10;;
17618;SDS011;8928;51.678;6.074;2023-10-31T10:00:22;32.33;;;18.60;;
17618;SDS011;8928;51.678;6.074;2023-10-31T10:03:09;30.03;;;17.47;;
17618;SDS011;8928;51.678;6.074;2023-10-31T10:05:56;32.27;;;17.20;;
17618;SDS011;8928;51.678;6.074;2023-10-31T10:08:44;33.20;;;17.50;;
17618;SDS011;8928;51.678;6.074;2023-10-31T10:11:33;29.53;;;16.87;;
17618;SDS011;8928;51.678;6.074;2023-10-31T10:14:22;28.83;;;16.73;;
17618;SDS011;8928;51.678;6.074;2023-10-31T10:17:13;29.63;;;16.37;;
17618;SDS011;8928;51.678;6.074;2023-10-31T10:20:05;33.47;;;16.93;;
17618;SDS011;8928;51.678;6.074;2023-10-31T10:22:53;30.47;;;15.73;;
17618;SDS011;8928;51.678;6.074;2023-10-31T10:25:41;28.00;;;15.70;;
17618;SDS011;8928;51.678;6.074;2023-10-31T10:28:30;30.00;;;15.40;;
17618;SDS011;8928;51.678;6.074;2023-10-31T10:31:18;29.40;;;15.20;;
17618;SDS011;8928;51.678;6.074;2023-10-31T10:34:05;28.17;;;15.00;;
17618;SDS011;8928;51.678;6.074;2023-10-31T10:36:52;29.50;;;14.80;;
17618;SDS011;8928;51.678;6.074;2023-10-31T10:39:42;26.23;;;13.63;;
17618;SDS011;8928;51.678;6.074;2023-10-31T10:42:37;27.90;;;14.30;;
17618;SDS011;8928;51.678;6.074;2023-10-31T10:45:33;25.13;;;12.70;;
17618;SDS011;8928;51.678;6.074;2023-10-31T10:48:21;21.83;;;12.10;;
17618;SDS011;8928;51.678;6.074;2023-10-31T10:51:11;26.73;;;12.80;;
17618;SDS011;8928;51.678;6.074;2023-10-31T10:54:08;26.00;;;11.97;;
17618;SDS011;8928;51.678;6.074;2023-10-31T10:57:03;28.17;;;12.50;;
17618;SDS011;8928;51.678;6.074;2023-10-31T10:59:56;25.97;;;12.13;;
17618;SDS011;8928;51.678;6.074;2023-10-31T11:02:50;22.23;;;11.83;;
17618;SDS011;8928;51.678;6.074;2023-10-31T11:05:38;24.03;;;12.23;;
17618;SDS011;8928;51.678;6.074;2023-10-31T11:08:26;19.90;;;11.00;;
17618;SDS011;8928;51.678;6.074;2023-10-31T11:11:14;27.60;;;12.20;;
17618;SDS011;8928;51.678;6.074;2023-10-31T11:14:02;24.03;;;11.80;;
17618;SDS011;8928;51.678;6.074;2023-10-31T11:16:51;25.37;;;12.53;;
17618;SDS011;8928;51.678;6.074;2023-10-31T11:19:41;23.93;;;12.53;;
17618;SDS011;8928;51.678;6.074;2023-10-31T11:22:36;22.03;;;11.33;;
17618;SDS011;8928;51.678;6.074;2023-10-31T11:25:24;23.60;;;11.90;;
17618;SDS011;8928;51.678;6.074;2023-10-31T11:28:12;22.73;;;10.93;;
17618;SDS011;8928;51.678;6.074;2023-10-31T11:30:59;20.67;;;10.27;;
17618;SDS011;8928;51.678;6.074;2023-10-31T11:33:48;24.33;;;10.83;;
17618;SDS011;8928;51.678;6.074;2023-10-31T11:36:36;19.57;;;10.43;;
17618;SDS011;8928;51.678;6.074;2023-10-31T11:39:23;26.93;;;10.10;;
17618;SDS011;8928;51.678;6.074;2023-10-31T11:42:16;22.37;;;10.33;;
17618;SDS011;8928;51.678;6.074;2023-10-31T11:45:07;19.03;;;10.20;;
17618;SDS011;8928;51.678;6.074;2023-10-31T11:47:54;23.13;;;10.73;;
17618;SDS011;8928;51.678;6.074;2023-10-31T11:50:41;18.43;;;9.63;;
17618;SDS011;8928;51.678;6.074;2023-10-31T11:53:30;19.40;;;10.33;;
17618;SDS011;8928;51.678;6.074;2023-10-31T11:56:17;20.57;;;10.20;;
17618;SDS011;8928;51.678;6.074;2023-10-31T11:59:05;22.53;;;10.00;;
17618;SDS011;8928;51.678;6.074;2023-10-31T12:01:53;17.73;;;9.43;;
17618;SDS011;8928;51.678;6.074;2023-10-31T12:04:40;19.93;;;9.90;;
17618;SDS011;8928;51.678;6.074;2023-10-31T12:07:27;19.13;;;9.50;;
17618;SDS011;8928;51.678;6.074;2023-10-31T12:10:20;19.60;;;9.90;;
17618;SDS011;8928;51.678;6.074;2023-10-31T12:13:12;21.40;;;9.87;;
17618;SDS011;8928;51.678;6.074;2023-10-31T12:15:59;20.80;;;9.67;;
17618;SDS011;8928;51.678;6.074;2023-10-31T12:18:53;22.10;;;10.10;;
17618;SDS011;8928;51.678;6.074;2023-10-31T12:21:42;20.93;;;9.33;;
17618;SDS011;8928;51.678;6.074;2023-10-31T12:24:32;20.97;;;9.30;;
17618;SDS011;8928;51.678;6.074;2023-10-31T12:27:21;19.97;;;9.47;;
17618;SDS011;8928;51.678;6.074;2023-10-31T12:30:08;17.27;;;8.43;;
17618;SDS011;8928;51.678;6.074;2023-10-31T12:32:56;20.37;;;9.40;;
17618;SDS011;8928;51.678;6.074;2023-10-31T12:35:43;18.33;;;9.10;;
17618;SDS011;8928;51.678;6.074;2023-10-31T12:38:31;18.53;;;9.40;;
17618;SDS011;8928;51.678;6.074;2023-10-31T12:41:18;23.83;;;9.63;;
17618;SDS011;8928;51.678;6.074;2023-10-31T12:44:07;17.10;;;8.50;;
17618;SDS011;8928;51.678;6.074;2023-10-31T12:46:55;18.70;;;8.30;;
17618;SDS011;8928;51.678;6.074;2023-10-31T12:49:43;18.53;;;7.77;;
17618;SDS011;8928;51.678;6.074;2023-10-31T12:52:44;14.80;;;7.70;;
17618;SDS011;8928;51.678;6.074;2023-10-31T12:55:37;17.03;;;7.43;;
17618;SDS011;8928;51.678;6.074;2023-10-31T12:58:25;13.00;;;6.10;;
17618;SDS011;8928;51.678;6.074;2023-10-31T13:01:13;12.67;;;6.27;;
17618;SDS011;8928;51.678;6.074;2023-10-31T13:04:02;11.60;;;6.07;;
17618;SDS011;8928;51.678;6.074;2023-10-31T13:06:54;11.27;;;6.00;;
17618;SDS011;8928;51.678;6.074;2023-10-31T13:09:45;12.03;;;6.13;;
17618;SDS011;8928;51.678;6.074;2023-10-31T13:12:35;10.20;;;6.07;;
17618;SDS011;8928;51.678;6.074;2023-10-31T13:15:22;10.20;;;6.00;;
17618;SDS011;8928;51.678;6.074;2023-10-31T13:18:12;9.73;;;6.00;;
17618;SDS011;8928;51.678;6.074;2023-10-31T13:20:59;10.50;;;5.97;;
17618;SDS011;8928;51.678;6.074;2023-10-31T13:23:46;11.33;;;5.97;;
17618;SDS011;8928;51.678;6.074;2023-10-31T13:26:34;11.63;;;6.03;;
17618;SDS011;8928;51.678;6.074;2023-10-31T13:29:21;11.83;;;6.00;;
17618;SDS011;8928;51.678;6.074;2023-10-31T13:32:10;18.10;;;6.27;;
17618;SDS011;8928;51.678;6.074;2023-10-31T13:34:59;16.33;;;6.23;;
17618;SDS011;8928;51.678;6.074;2023-10-31T13:37:46;10.33;;;6.30;;
17618;SDS011;8928;51.678;6.074;2023-10-31T13:40:33;12.37;;;6.40;;
17618;SDS011;8928;51.678;6.074;2023-10-31T13:43:20;12.13;;;6.30;;
17618;SDS011;8928;51.678;6.074;2023-10-31T13:46:07;15.57;;;6.73;;
17618;SDS011;8928;51.678;6.074;2023-10-31T13:48:54;14.50;;;6.53;;
17618;SDS011;8928;51.678;6.074;2023-10-31T13:51:42;8.87;;;6.00;;
17618;SDS011;8928;51.678;6.074;2023-10-31T13:54:30;10.30;;;5.80;;
17618;SDS011;8928;51.678;6.074;2023-10-31T13:57:17;10.40;;;4.87;;
17618;SDS011;8928;51.678;6.074;2023-10-31T14:00:04;7.47;;;4.43;;
17618;SDS011;8928;51.678;6.074;2023-10-31T14:02:54;15.50;;;3.60;;
17618;SDS011;8928;51.678;6.074;2023-10-31T14:05:41;11.40;;;3.20;;
17618;SDS011;8928;51.678;6.074;2023-10-31T14:08:30;8.33;;;3.40;;
17618;SDS011;8928;51.678;6.074;2023-10-31T14:11:17;9.27;;;3.67;;
17618;SDS011;8928;51.678;6.074;2023-10-31T14:14:04;8.70;;;3.43;;
17618;SDS011;8928;51.678;6.074;2023-10-31T14:16:54;12.83;;;3.47;;
17618;SDS011;8928;51.678;6.074;2023-10-31T14:19:41;10.60;;;3.30;;
17618;SDS011;8928;51.678;6.074;2023-10-31T14:22:28;7.10;;;3.30;;
17618;SDS011;8928;51.678;6.074;2023-10-31T14:25:17;10.17;;;3.43;;
17618;SDS011;8928;51.678;6.074;2023-10-31T14:28:04;10.17;;;3.67;;
17618;SDS011;8928;51.678;6.074;2023-10-31T14:30:51;6.27;;;3.07;;
17618;SDS011;8928;51.678;6.074;2023-10-31T14:33:39;6.43;;;2.83;;
17618;SDS011;8928;51.678;6.074;2023-10-31T14:36:26;6.70;;;3.00;;
17618;SDS011;8928;51.678;6.074;2023-10-31T14:39:13;6.83;;;3.10;;
17618;SDS011;8928;51.678;6.074;2023-10-31T14:42:02;7.97;;;2.60;;
17618;SDS011;8928;51.678;6.074;2023-10-31T14:44:49;6.50;;;2.73;;
17618;SDS011;8928;51.678;6.074;2023-10-31T14:47:37;5.60;;;2.67;;
17618;SDS011;8928;51.678;6.074;2023-10-31T14:50:24;6.77;;;2.60;;
17618;SDS011;8928;51.678;6.074;2023-10-31T14:53:11;7.27;;;2.73;;
17618;SDS011;8928;51.678;6.074;2023-10-31T14:55:58;6.20;;;2.60;;
17618;SDS011;8928;51.678;6.074;2023-10-31T14:58:48;4.23;;;2.30;;
17618;SDS011;8928;51.678;6.074;2023-10-31T15:01:35;7.50;;;2.57;;
17618;SDS011;8928;51.678;6.074;2023-10-31T15:04:22;5.60;;;2.53;;
17618;SDS011;8928;51.678;6.074;2023-10-31T15:07:09;6.27;;;2.40;;
17618;SDS011;8928;51.678;6.074;2023-10-31T15:09:56;4.87;;;1.80;;
17618;SDS011;8928;51.678;6.074;2023-10-31T15:12:43;10.33;;;2.50;;
17618;SDS011;8928;51.678;6.074;2023-10-31T15:15:32;5.57;;;2.30;;
17618;SDS011;8928;51.678;6.074;2023-10-31T15:18:19;4.63;;;2.37;;
17618;SDS011;8928;51.678;6.074;2023-10-31T15:21:07;5.03;;;2.73;;
17618;SDS011;8928;51.678;6.074;2023-10-31T15:23:54;5.80;;;2.30;;
17618;SDS011;8928;51.678;6.074;2023-10-31T15:26:43;7.60;;;2.57;;
17618;SDS011;8928;51.678;6.074;2023-10-31T15:29:30;13.10;;;3.10;;
17618;SDS011;8928;51.678;6.074;2023-10-31T15:32:18;7.80;;;2.73;;
17618;SDS011;8928;51.678;6.074;2023-10-31T15:35:06;6.83;;;3.00;;
17618;SDS011;8928;51.678;6.074;2023-10-31T15:37:53;9.20;;;3.07;;
17618;SDS011;8928;51.678;6.074;2023-10-31T15:40:40;8.83;;;3.20;;
17618;SDS011;8928;51.678;6.074;2023-10-31T15:43:28;10.63;;;3.17;;
17618;SDS011;8928;51.678;6.074;2023-10-31T15:46:16;8.00;;;3.10;;
17618;SDS011;8928;51.678;6.074;2023-10-31T15:49:05;9.33;;;3.40;;
17618;SDS011;8928;51.678;6.074;2023-10-31T15:51:52;11.40;;;3.40;;
17618;SDS011;8928;51.678;6.074;2023-10-31T15:54:39;7.87;;;3.30;;
17618;SDS011;8928;51.678;6.074;2023-10-31T15:57:26;8.30;;;3.50;;
17618;SDS011;8928;51.678;6.074;2023-10-31T16:00:13;7.70;;;3.57;;
17618;SDS011;8928;51.678;6.074;2023-10-31T16:03:00;8.10;;;3.63;;
17618;SDS011;8928;51.678;6.074;2023-10-31T16:05:50;10.73;;;3.53;;
17618;SDS011;8928;51.678;6.074;2023-10-31T16:08:37;9.83;;;3.93;;
17618;SDS011;8928;51.678;6.074;2023-10-31T16:11:25;10.70;;;3.73;;
17618;SDS011;8928;51.678;6.074;2023-10-31T16:14:12;13.00;;;4.03;;
17618;SDS011;8928;51.678;6.074;2023-10-31T16:16:59;12.03;;;4.13;;
17618;SDS011;8928;51.678;6.074;2023-10-31T16:19:46;12.93;;;4.23;;
17618;SDS011;8928;51.678;6.074;2023-10-31T16:22:35;11.20;;;4.33;;
17618;SDS011;8928;51.678;6.074;2023-10-31T16:25:22;12.07;;;4.20;;
17618;SDS011;8928;51.678;6.074;2023-10-31T16:28:09;12.83;;;4.50;;
17618;SDS011;8928;51.678;6.074;2023-10-31T16:30:57;9.47;;;4.63;;
17618;SDS011;8928;51.678;6.074;2023-10-31T16:33:44;12.83;;;4.90;;
17618;SDS011;8928;51.678;6.074;2023-10-31T16:36:31;10.73;;;4.50;;
17618;SDS011;8928;51.678;6.074;2023-10-31T16:39:19;12.53;;;4.77;;
17618;SDS011;8928;51.678;6.074;2023-10-31T16:42:06;10.83;;;4.60;;